CPX785 Details

Departure: Tan Son Nhat International Airport (VVTS)
Arrival: Incheon International Airport (RKSI)
Route: TANOS1B PTH N500 AGSAM L625 ABVAR M646 POTIB Q11 DRAKE Q11 WP900 L4 LIPLO Y741 BOLUT B576 OLMEN OLMEN1P


Current Weather Information
VVTS 181500Z 14008KT 120V180 9999 FEW017 29/22 Q1011 NOSIG
RKSI 181500Z 13002KT CAVOK 04/M01 Q1017 NOSIG